Terminal Aerodrome Forecast
Issued by NWS

Home | Current Version | Previous Version | Text Only | Print | Product List | Glossary On
Versions: 1 2 3 4 5 6 7 8 9 10 11 12 13 14 15 16 17 18 19 20 21 22 23 24 25 26 27 28 29 30 31 32 33 34 35 36 37 38 39 40 41 42 43
000
FTAK31 PAFA 202329
TAFAFA
TAF
PAFA 202329Z 2100/2206 VRB03KT P6SM SCT050 BKN120 BKN150
     FM210600 VRB03KT 5SM -SHSN BKN025 BKN035 OVC050
     FM210900 VRB03KT 1 1/2SM -SN BR BKN015 OVC025
     FM211200 VRB03KT 4SM -SN BR OVC025=

USA.gov is the U.S. government's official web portal to all federal, state and local government web resources and services.